createdAt,value
2019-01-25T06:22:01.316Z,0.1
2019-01-25T06:24:01.224Z,0.2
2019-01-25T06:25:01.099Z,0.3
2019-01-25T06:27:01.238Z,0.4
2019-01-25T06:28:06.102Z,0.5
2019-01-25T06:30:01.102Z,0.6
2019-01-25T06:31:01.100Z,0.7
2019-01-25T06:32:01.312Z,0.8
2019-01-25T06:33:02.127Z,0.9
2019-01-25T06:34:01.098Z,1.1
2019-01-25T06:35:01.100Z,1.2
2019-01-25T06:37:01.252Z,1.4
2019-01-25T06:38:01.087Z,1.6
2019-01-25T06:39:01.086Z,1.8
2019-01-25T06:40:01.099Z,2.1
2019-01-25T06:41:01.089Z,2.4
2019-01-25T06:42:01.299Z,2.8
2019-01-25T06:43:01.150Z,3.3
2019-01-25T06:44:11.092Z,3.8
2019-01-25T06:45:01.091Z,4.5
2019-01-25T06:46:01.094Z,5.3
2019-01-25T06:47:01.234Z,6.2
2019-01-25T06:48:01.131Z,7.2
2019-01-25T06:49:01.090Z,8.4
2019-01-25T06:50:01.091Z,9.9
2019-01-25T06:51:01.092Z,11.7
2019-01-25T06:52:01.238Z,13.7
2019-01-25T06:53:01.089Z,16.1
2019-01-25T06:54:01.090Z,19.1
2019-01-25T06:55:01.092Z,22.5
2019-01-25T06:56:01.763Z,26.8
2019-01-25T06:57:01.238Z,31.9
2019-01-25T06:58:01.096Z,38.1
2019-01-25T06:59:01.132Z,45.4
2019-01-25T07:00:01.095Z,53.7
2019-01-25T07:01:01.137Z,63.2
2019-01-25T07:02:01.238Z,74.0
2019-01-25T07:03:01.134Z,86.3
2019-01-25T07:04:01.092Z,100.1
2019-01-25T07:05:01.094Z,115.0
2019-01-25T07:06:01.096Z,131.0
2019-01-25T07:07:01.328Z,148.0
2019-01-25T07:08:01.094Z,166.1
2019-01-25T07:09:01.096Z,185.5
2019-01-25T07:10:01.095Z,207.0
2019-01-25T07:11:01.096Z,231.2
2019-01-25T07:12:01.310Z,259.1
2019-01-25T07:13:01.100Z,291.5
2019-01-25T07:14:01.099Z,329.7
2019-01-25T07:15:01.107Z,374.3
2019-01-25T07:16:02.174Z,425.5
2019-01-25T07:17:01.240Z,483.4
2019-01-25T07:18:01.100Z,546.5
2019-01-25T07:20:01.084Z,621.5
2019-01-25T07:21:01.088Z,703.9
2019-01-25T07:22:01.550Z,793.5
2019-01-25T07:23:01.087Z,890.6
2019-01-25T07:24:01.084Z,995.1
2019-01-25T07:25:01.151Z,1106.9
2019-01-25T07:26:01.085Z,1226.2
2019-01-25T07:27:01.229Z,1352.7
2019-01-25T07:28:01.099Z,1486.1
2019-01-25T07:29:01.092Z,1626.5
2019-01-25T07:30:01.171Z,1773.0
2019-01-25T07:31:01.106Z,1927.5
2019-01-25T07:32:01.308Z,2090.2
2019-01-25T07:33:01.089Z,2261.4
2019-01-25T07:34:01.089Z,2439.3
2019-01-25T07:35:01.110Z,2612.7
2019-01-25T07:36:01.088Z,2787.7
2019-01-25T07:37:01.322Z,2970.2
2019-01-25T07:38:01.114Z,3159.6
2019-01-25T07:39:01.094Z,3355.5
2019-01-25T07:40:01.090Z,3560.6
2019-01-25T07:41:01.097Z,3775.9
2019-01-25T07:42:02.300Z,3998.5
2019-01-25T07:43:01.192Z,4225.3
2019-01-25T07:44:01.094Z,4452.3
2019-01-25T07:45:01.182Z,4672.4
2019-01-25T07:46:01.091Z,4879.3
2019-01-25T07:47:01.293Z,5067.3
2019-01-25T07:48:01.089Z,5245.5
2019-01-25T07:49:01.108Z,5426.2
2019-01-25T07:50:01.199Z,5616.9
2019-01-25T07:51:01.089Z,5819.5
2019-01-25T07:52:01.232Z,6028.0
2019-01-25T07:53:01.112Z,6242.7
2019-01-25T07:54:01.095Z,6462.1
2019-01-25T07:55:01.173Z,6669.8
2019-01-25T07:56:01.109Z,6851.6
2019-01-25T07:57:01.233Z,7013.3
2019-01-25T07:58:01.162Z,7165.6
2019-01-25T07:59:01.100Z,7315.0
2019-01-25T08:00:01.095Z,7467.2
2019-01-25T08:01:01.131Z,7620.4
2019-01-25T08:02:01.299Z,7784.1
2019-01-25T08:03:02.113Z,7958.9
2019-01-25T08:04:01.099Z,8141.3
2019-01-25T08:05:01.107Z,8319.2
2019-01-25T08:06:01.094Z,8483.0
2019-01-25T08:07:01.273Z,8625.7
2019-01-25T08:08:01.254Z,8746.3
2019-01-25T08:09:01.099Z,8857.9
2019-01-25T08:10:01.116Z,8976.3
2019-01-25T08:11:01.099Z,9106.2
2019-01-25T08:12:07.201Z,9241.8
2019-01-25T08:13:01.167Z,9377.9
2019-01-25T08:14:01.097Z,9513.8
2019-01-25T08:15:01.130Z,9654.3
2019-01-25T08:16:01.115Z,9813.1
2019-01-25T08:17:01.315Z,9981.0
2019-01-25T08:18:01.105Z,10160.5
2019-01-25T08:19:01.102Z,10338.1
2019-01-25T08:20:01.116Z,10518.7
2019-01-25T08:22:01.400Z,10732.5
2019-01-25T08:23:01.142Z,10975.4
2019-01-25T08:24:01.119Z,11247.9
2019-01-25T08:25:01.117Z,11516.0
2019-01-25T08:26:01.094Z,11772.7
2019-01-25T08:27:01.253Z,12038.7
2019-01-25T08:28:01.108Z,12317.1
2019-01-25T08:29:01.086Z,12602.1
2019-01-25T08:30:01.160Z,12902.1
2019-01-25T08:31:01.083Z,13211.2
2019-01-25T08:32:01.260Z,13518.7
2019-01-25T08:33:01.105Z,13813.4
2019-01-25T08:34:01.126Z,14066.2
2019-01-25T08:35:01.219Z,14281.5
2019-01-25T08:36:01.099Z,14478.8
2019-01-25T08:37:01.260Z,14655.5
2019-01-25T08:38:01.086Z,14830.5
2019-01-25T08:39:01.097Z,15014.7
2019-01-25T08:40:01.095Z,15222.3
2019-01-25T08:41:01.099Z,15441.8
2019-01-25T08:42:01.241Z,15654.7
2019-01-25T08:43:01.129Z,15858.5
2019-01-25T08:44:06.106Z,16057.3
2019-01-25T08:45:02.979Z,16244.8
2019-01-25T08:46:01.090Z,16431.6
2019-01-25T08:47:01.613Z,16614.4
2019-01-25T08:48:02.688Z,16800.5
2019-01-25T08:49:01.101Z,17012.7
2019-01-25T08:50:01.195Z,17265.3
2019-01-25T08:51:01.145Z,17548.3
2019-01-25T08:52:01.384Z,17834.0
2019-01-25T08:53:01.091Z,18102.5
2019-01-25T08:54:01.097Z,18332.3
2019-01-25T08:55:01.121Z,18505.6
2019-01-25T08:56:01.102Z,18628.9
2019-01-25T08:57:01.308Z,18741.9
2019-01-25T08:58:01.091Z,18879.9
2019-01-25T08:59:01.112Z,19000.5
2019-01-25T09:00:01.095Z,19139.5
2019-01-25T09:01:01.093Z,19309.7
2019-01-25T09:02:01.349Z,19493.4
2019-01-25T09:03:01.096Z,19697.9
2019-01-25T09:04:01.094Z,19931.7
2019-01-25T09:05:01.097Z,20189.3
2019-01-25T09:06:01.094Z,20443.7
2019-01-25T09:07:01.272Z,20686.2
2019-01-25T09:08:02.193Z,20936.3
2019-01-25T09:09:01.106Z,21199.9
2019-01-25T09:10:01.109Z,21542.7
2019-01-25T09:11:01.094Z,21970.8
2019-01-25T09:12:01.239Z,22407.7
2019-01-25T09:13:01.102Z,22871.3
2019-01-25T09:14:01.096Z,23380.3
2019-01-25T09:15:01.095Z,23882.5
2019-01-25T09:16:01.096Z,24392.3
2019-01-25T09:17:01.301Z,24962.5
2019-01-25T09:18:01.096Z,25585.7
2019-01-25T09:19:01.119Z,26236.1
2019-01-25T09:20:01.103Z,26867.5
2019-01-25T09:21:01.105Z,27497.7
2019-01-25T09:22:01.433Z,28163.7
2019-01-25T09:23:01.099Z,28839.4
2019-01-25T09:24:06.104Z,29505.8
2019-01-25T09:25:01.107Z,30160.2
2019-01-25T09:26:01.317Z,30809.0
2019-01-25T09:27:03.180Z,31413.4
2019-01-25T09:28:01.104Z,31987.1
2019-01-25T09:29:06.113Z,32533.7
2019-01-25T09:30:01.109Z,33032.8
2019-01-25T09:31:01.101Z,33491.1
2019-01-25T09:33:01.276Z,33974.9
2019-01-25T09:34:01.093Z,34356.3
2019-01-25T09:35:01.086Z,34637.2
2019-01-25T09:36:01.083Z,34902.7
2019-01-25T09:37:01.087Z,35135.9
2019-01-25T09:38:01.260Z,35334.1
2019-01-25T09:39:01.084Z,35520.8
2019-01-25T09:40:01.085Z,35702.9
2019-01-25T09:41:01.086Z,35855.1
2019-01-25T09:42:01.085Z,36021.2
2019-01-25T09:43:01.268Z,36291.6
2019-01-25T09:44:01.087Z,36559.7
2019-01-25T09:45:01.087Z,36863.1
2019-01-25T09:46:01.089Z,37230.7
2019-01-25T09:47:01.091Z,37684.0
2019-01-25T09:48:01.291Z,38141.2
2019-01-25T09:49:01.088Z,38678.0
2019-01-25T09:50:01.093Z,39319.5
2019-01-25T09:51:01.097Z,39998.5
2019-01-25T09:52:01.090Z,40747.7
2019-01-25T09:53:01.256Z,41543.1
2019-01-25T09:54:01.094Z,42387.1
2019-01-25T09:55:01.094Z,43197.5
2019-01-25T09:56:01.088Z,43857.4
2019-01-25T09:57:01.091Z,44341.3
2019-01-25T09:58:01.262Z,44535.5
2019-01-25T09:59:01.089Z,44853.5
2019-01-25T10:00:01.093Z,45424.1
2019-01-25T10:01:01.092Z,46015.7
2019-01-25T10:02:01.150Z,46542.0
2019-01-25T10:03:01.255Z,46979.9
2019-01-25T10:04:01.092Z,47455.1
2019-01-25T10:05:01.099Z,47875.9
2019-01-25T10:06:01.099Z,48223.8
2019-01-25T10:07:01.118Z,48493.7
2019-01-25T10:08:01.236Z,48686.1
2019-01-25T10:09:01.094Z,48892.7
2019-01-25T10:10:01.487Z,49154.3
2019-01-25T10:11:01.643Z,49522.1
2019-01-25T10:12:01.151Z,49946.5
2019-01-25T10:13:01.234Z,50527.7
2019-01-25T10:14:01.095Z,50923.7
2019-01-25T10:15:01.159Z,50988.9
2019-01-25T10:16:01.098Z,50948.2
2019-01-25T10:17:01.119Z,50909.1
2019-01-25T10:18:01.242Z,50800.1
2019-01-25T10:19:01.095Z,50516.7
2019-01-25T10:20:01.102Z,50300.7
2019-01-25T10:21:01.099Z,50304.7
2019-01-25T10:22:01.122Z,50412.5
2019-01-25T10:23:01.236Z,50566.2
2019-01-25T10:24:01.096Z,50677.7
2019-01-25T10:25:01.099Z,50796.7
2019-01-25T10:26:01.107Z,50945.4
2019-01-25T10:27:01.120Z,51130.5
2019-01-25T10:28:01.238Z,51404.7
2019-01-25T10:29:01.097Z,51786.5
2019-01-25T10:30:02.042Z,52309.1
2019-01-25T10:31:01.105Z,53007.5
2019-01-25T10:32:06.103Z,53803.1
2019-01-25T10:33:01.244Z,54700.1
2019-01-25T10:34:01.106Z,55715.7
2019-01-25T10:35:01.103Z,56647.7
2019-01-25T10:36:01.109Z,57422.2
2019-01-25T10:37:01.134Z,58111.2
2019-01-25T10:38:01.376Z,58804.6
2019-01-25T10:39:01.099Z,59418.5
2019-01-25T10:40:01.102Z,59658.5
2019-01-25T10:41:01.102Z,59669.6
2019-01-25T10:42:06.102Z,59538.5
2019-01-25T10:43:01.243Z,59557.3
2019-01-25T10:44:01.107Z,59549.3
2019-01-25T10:45:04.321Z,59293.9
2019-01-25T10:46:01.101Z,58963.2
2019-01-25T10:47:01.128Z,58526.5
2019-01-25T10:49:01.241Z,57686.0
2019-01-25T10:50:02.120Z,57106.9
2019-01-25T10:51:01.094Z,56615.9
2019-01-25T10:52:01.125Z,56273.3
2019-01-25T10:53:01.090Z,56074.9
2019-01-25T10:54:01.247Z,55842.5
2019-01-25T10:55:01.093Z,55683.5
2019-01-25T10:56:01.090Z,55957.0
2019-01-25T10:57:01.159Z,56526.4
2019-01-25T10:58:01.094Z,57274.1
2019-01-25T10:59:01.295Z,57752.3
2019-01-25T11:00:01.214Z,58205.0
2019-01-25T11:01:01.094Z,58857.8
2019-01-25T11:02:01.103Z,59422.7
2019-01-25T11:03:01.131Z,59925.7
2019-01-25T11:04:01.260Z,60749.5
2019-01-25T11:05:01.096Z,61261.1
2019-01-25T11:06:02.161Z,61806.5
2019-01-25T11:07:01.097Z,62020.6
2019-01-25T11:08:01.100Z,62001.9
2019-01-25T11:09:01.272Z,61998.8
2019-01-25T11:10:01.096Z,62062.7
2019-01-25T11:11:01.097Z,62074.9
2019-01-25T11:12:01.103Z,62046.5
2019-01-25T11:13:01.347Z,62197.6
2019-01-25T11:14:01.313Z,62444.8
2019-01-25T11:15:01.431Z,62672.5
2019-01-25T11:16:01.101Z,62840.1
2019-01-25T11:17:01.104Z,63038.4
2019-01-25T11:18:01.104Z,63265.2
2019-01-25T11:19:01.277Z,63513.1
2019-01-25T11:21:01.090Z,63771.6
2019-01-25T11:22:01.091Z,63904.4
2019-01-25T11:23:01.094Z,64178.8
2019-01-25T11:24:01.091Z,64538.3
2019-01-25T11:25:01.241Z,64884.5
2019-01-25T11:26:01.092Z,65132.5
2019-01-25T11:27:02.112Z,65345.3
2019-01-25T11:28:01.095Z,65535.0
2019-01-25T11:30:01.237Z,65535.0
2019-01-25T11:45:01.099Z,65535.0
2019-01-25T12:00:06.107Z,65535.0
2019-01-25T12:15:01.307Z,65535.0
2019-01-25T12:30:01.093Z,65535.0
2019-01-25T12:42:01.400Z,65429.9
2019-01-25T12:43:01.128Z,65222.6
2019-01-25T12:44:01.102Z,64878.2
2019-01-25T12:45:01.100Z,64386.1
2019-01-25T12:46:01.100Z,63907.7
2019-01-25T12:47:01.243Z,63484.4
2019-01-25T12:48:06.108Z,63121.7
2019-01-25T12:49:01.102Z,62685.6
2019-01-25T12:50:01.121Z,62172.3
2019-01-25T12:52:01.236Z,61597.0
2019-01-25T12:53:01.112Z,60963.7
2019-01-25T12:54:01.084Z,60244.7
2019-01-25T12:55:01.088Z,59443.3
2019-01-25T12:56:01.091Z,58554.1
2019-01-25T12:57:01.296Z,57658.4
2019-01-25T12:58:01.089Z,56880.5
2019-01-25T12:59:01.091Z,56214.9
2019-01-25T13:00:01.093Z,55732.3
2019-01-25T13:01:02.418Z,55478.1
2019-01-25T13:02:01.235Z,55207.9
2019-01-25T13:03:01.093Z,54806.1
2019-01-25T13:04:01.092Z,54277.3
2019-01-25T13:05:01.091Z,53776.4
2019-01-25T13:06:01.095Z,53399.1
2019-01-25T13:07:01.284Z,53207.1
2019-01-25T13:08:01.093Z,53137.9
2019-01-25T13:09:01.094Z,53139.5
2019-01-25T13:10:01.094Z,53180.7
2019-01-25T13:11:01.095Z,53268.0
2019-01-25T13:12:01.250Z,53347.1
2019-01-25T13:13:01.097Z,53434.2
2019-01-25T13:14:01.091Z,53557.1
2019-01-25T13:15:01.091Z,53682.5
2019-01-25T13:16:01.094Z,53747.9
2019-01-25T13:17:01.302Z,53806.9
2019-01-25T13:18:01.093Z,53926.3
2019-01-25T13:19:01.095Z,54099.4
2019-01-25T13:20:01.096Z,54307.1
2019-01-25T13:21:01.105Z,54431.9
2019-01-25T13:22:02.248Z,54375.3
2019-01-25T13:23:01.096Z,54191.9
2019-01-25T13:24:01.096Z,53973.9
2019-01-25T13:25:01.099Z,53745.9
2019-01-25T13:26:01.101Z,53508.7
2019-01-25T13:27:01.233Z,53243.1
2019-01-25T13:28:02.299Z,52920.1
2019-01-25T13:29:01.099Z,52510.4
2019-01-25T13:30:01.098Z,52012.4
2019-01-25T13:31:01.095Z,51459.2
2019-01-25T13:32:01.326Z,50883.6
2019-01-25T13:33:01.099Z,50287.0
2019-01-25T13:34:01.095Z,49657.9
2019-01-25T13:35:01.163Z,48992.5
2019-01-25T13:36:01.117Z,48328.1
2019-01-25T13:37:01.267Z,47696.5
2019-01-25T13:38:01.103Z,47097.5
2019-01-25T13:39:01.100Z,46497.1
2019-01-25T13:40:01.103Z,45874.2
2019-01-25T13:41:01.754Z,45261.5
2019-01-25T13:42:01.386Z,44610.7
2019-01-25T13:43:01.101Z,43922.8
2019-01-25T13:44:01.101Z,43218.5
2019-01-25T13:45:06.142Z,42514.7
2019-01-25T13:46:01.103Z,41804.6
2019-01-25T13:47:01.306Z,41065.2
2019-01-25T13:48:01.110Z,40289.1
2019-01-25T13:49:01.101Z,39491.3
2019-01-25T13:50:01.181Z,38704.1
2019-01-25T13:52:01.227Z,37932.4
2019-01-25T13:53:01.088Z,37153.7
2019-01-25T13:54:01.085Z,36359.7
2019-01-25T13:55:01.089Z,35579.7
2019-01-25T13:56:01.089Z,34842.9
2019-01-25T13:57:01.227Z,34100.2
2019-01-25T13:58:01.088Z,33378.3
2019-01-25T13:59:01.089Z,32670.7
2019-01-25T14:00:01.086Z,31966.5
2019-01-25T14:01:01.085Z,31243.9
2019-01-25T14:02:01.230Z,30497.9
2019-01-25T14:03:01.099Z,29749.5
2019-01-25T14:04:01.086Z,29025.0
2019-01-25T14:05:01.089Z,28337.2
2019-01-25T14:06:01.088Z,27663.5
2019-01-25T14:07:01.233Z,26993.6
2019-01-25T14:08:01.089Z,26364.3
2019-01-25T14:09:01.088Z,25825.1
2019-01-25T14:10:01.126Z,25381.2
2019-01-25T14:11:01.092Z,25006.6
2019-01-25T14:12:01.239Z,24689.1
2019-01-25T14:13:01.091Z,24430.7
2019-01-25T14:14:01.090Z,24225.5
2019-01-25T14:15:01.093Z,24067.3
2019-01-25T14:16:01.091Z,23951.0
2019-01-25T14:17:01.234Z,23880.6
2019-01-25T14:18:01.094Z,23873.4
2019-01-25T14:19:01.090Z,23932.6
2019-01-25T14:20:01.094Z,24032.8
2019-01-25T14:21:01.094Z,24149.8
2019-01-25T14:22:01.272Z,24262.1
2019-01-25T14:23:01.095Z,24330.7
2019-01-25T14:24:01.091Z,24305.3
2019-01-25T14:25:02.733Z,24166.1
2019-01-25T14:26:01.090Z,23945.3
2019-01-25T14:27:01.398Z,23684.1
2019-01-25T14:28:01.093Z,23398.6
2019-01-25T14:29:01.919Z,23096.1
2019-01-25T14:30:01.940Z,22779.6
2019-01-25T14:31:01.090Z,22452.1
2019-01-25T14:32:01.332Z,22107.9
2019-01-25T14:33:01.091Z,21724.0
2019-01-25T14:34:01.091Z,21288.0
2019-01-25T14:35:01.092Z,20813.7
2019-01-25T14:36:01.095Z,20323.9
2019-01-25T14:37:01.362Z,19833.0
2019-01-25T14:38:01.094Z,19348.7
2019-01-25T14:39:01.159Z,18881.6
2019-01-25T14:40:01.093Z,18439.4
2019-01-25T14:41:01.094Z,18011.7
2019-01-25T14:42:01.275Z,17580.8
2019-01-25T14:43:01.137Z,17139.3
2019-01-25T14:44:01.100Z,16688.9
2019-01-25T14:45:01.107Z,16234.6
2019-01-25T14:46:01.098Z,15787.1
2019-01-25T14:47:01.275Z,15357.8
2019-01-25T14:48:01.098Z,14948.9
2019-01-25T14:50:01.095Z,14513.9
2019-01-25T14:51:01.099Z,14075.5
2019-01-25T14:52:01.262Z,13637.2
2019-01-25T14:53:01.086Z,13209.2
2019-01-25T14:54:01.092Z,12801.9
2019-01-25T14:55:01.095Z,12417.1
2019-01-25T14:56:01.087Z,12053.8
2019-01-25T14:57:01.268Z,11714.3
2019-01-25T14:58:01.088Z,11404.5
2019-01-25T14:59:01.094Z,11127.3
2019-01-25T15:00:01.091Z,10872.5
2019-01-25T15:01:01.088Z,10627.4
2019-01-25T15:02:01.256Z,10388.5
2019-01-25T15:03:01.094Z,10152.5
2019-01-25T15:04:01.130Z,9916.7
2019-01-25T15:05:01.088Z,9723.9
2019-01-25T15:06:01.087Z,9549.2
2019-01-25T15:07:01.232Z,9384.9
2019-01-25T15:08:01.086Z,9214.2
2019-01-25T15:09:06.088Z,9025.9
2019-01-25T15:10:01.093Z,8821.2
2019-01-25T15:11:01.089Z,8601.4
2019-01-25T15:12:01.293Z,8365.5
2019-01-25T15:13:01.058Z,8113.4
2019-01-25T15:14:02.343Z,7844.6
2019-01-25T15:15:01.097Z,7564.7
2019-01-25T15:16:01.088Z,7279.1
2019-01-25T15:17:01.235Z,6986.4
2019-01-25T15:18:01.091Z,6687.7
2019-01-25T15:19:01.097Z,6390.6
2019-01-25T15:20:01.090Z,6097.4
2019-01-25T15:21:01.093Z,5804.5
2019-01-25T15:22:01.233Z,5510.7
2019-01-25T15:23:01.093Z,5222.6
2019-01-25T15:24:01.092Z,4946.7
2019-01-25T15:25:01.095Z,4683.1
2019-01-25T15:26:01.094Z,4429.7
2019-01-25T15:27:01.240Z,4185.2
2019-01-25T15:28:01.215Z,3948.1
2019-01-25T15:29:01.093Z,3719.7
2019-01-25T15:30:01.095Z,3502.0
2019-01-25T15:31:01.098Z,3296.5
2019-01-25T15:32:01.241Z,3104.1
2019-01-25T15:33:01.099Z,2923.7
2019-01-25T15:34:02.210Z,2753.1
2019-01-25T15:35:01.094Z,2590.7
2019-01-25T15:36:01.097Z,2434.9
2019-01-25T15:37:01.274Z,2285.4
2019-01-25T15:38:01.095Z,2143.4
2019-01-25T15:39:01.258Z,2009.5
2019-01-25T15:40:01.098Z,1883.8
2019-01-25T15:41:01.097Z,1766.9
2019-01-25T15:42:01.238Z,1658.5
2019-01-25T15:43:01.093Z,1557.8
2019-01-25T15:44:01.098Z,1463.9
2019-01-25T15:45:01.165Z,1375.8
2019-01-25T15:46:01.160Z,1291.9
2019-01-25T15:47:01.245Z,1211.7
2019-01-25T15:48:02.122Z,1134.9
2019-01-25T15:49:02.186Z,1061.6
2019-01-25T15:50:01.099Z,991.2
2019-01-25T15:52:01.412Z,920.2
2019-01-25T15:53:01.085Z,851.7
2019-01-25T15:54:01.084Z,785.7
2019-01-25T15:55:01.083Z,722.7
2019-01-25T15:56:01.087Z,662.7
2019-01-25T15:57:01.366Z,605.8
2019-01-25T15:58:01.085Z,552.0
2019-01-25T15:59:01.150Z,501.5
2019-01-25T16:00:01.093Z,454.2
2019-01-25T16:01:01.135Z,410.3
2019-01-25T16:02:01.238Z,369.6
2019-01-25T16:03:01.090Z,332.2
2019-01-25T16:04:01.089Z,298.1
2019-01-25T16:05:06.090Z,267.1
2019-01-25T16:06:01.090Z,239.0
2019-01-25T16:07:01.266Z,216.5
2019-01-25T16:08:01.093Z,196.0
2019-01-25T16:09:01.089Z,177.3
2019-01-25T16:10:01.091Z,160.3
2019-01-25T16:11:01.096Z,144.8
2019-01-25T16:12:01.294Z,130.5
2019-01-25T16:13:01.094Z,117.5
2019-01-25T16:14:02.254Z,105.5
2019-01-25T16:15:01.115Z,94.5
2019-01-25T16:16:01.105Z,84.3
2019-01-25T16:17:01.240Z,75.0
2019-01-25T16:18:01.093Z,66.5
2019-01-25T16:19:01.089Z,58.6
2019-01-25T16:20:01.091Z,51.5
2019-01-25T16:21:01.091Z,45.1
2019-01-25T16:22:01.297Z,39.4
2019-01-25T16:23:01.090Z,34.2
2019-01-25T16:24:01.094Z,29.6
2019-01-25T16:25:01.095Z,25.5
2019-01-25T16:26:01.099Z,21.9
2019-01-25T16:27:01.237Z,18.9
2019-01-25T16:28:01.093Z,16.2
2019-01-25T16:29:01.643Z,13.9
2019-01-25T16:30:06.097Z,11.9
2019-01-25T16:31:02.052Z,10.1
2019-01-25T16:32:01.240Z,8.5
2019-01-25T16:33:01.095Z,7.2
2019-01-25T16:34:01.098Z,6.1
2019-01-25T16:35:01.103Z,5.1
2019-01-25T16:36:01.093Z,4.3
2019-01-25T16:37:01.267Z,3.6
2019-01-25T16:38:01.098Z,3.1
2019-01-25T16:39:01.097Z,2.6
2019-01-25T16:40:01.100Z,2.2
2019-01-25T16:41:01.103Z,1.9
2019-01-25T16:42:01.307Z,1.5
2019-01-25T16:43:01.100Z,1.3
2019-01-25T16:44:01.102Z,1.1
2019-01-25T16:46:01.085Z,0.9
2019-01-25T16:47:01.223Z,0.7
2019-01-25T16:48:01.085Z,0.6
2019-01-25T16:49:01.083Z,0.5
2019-01-25T16:50:01.085Z,0.4
2019-01-25T16:51:01.086Z,0.3
2019-01-25T16:53:01.288Z,0.2
2019-01-25T16:54:01.090Z,0.1
